Time;durP1;ratioP1;P1;durP2;ratioP2;P2;SDS_P1;SDS_P2;PMS_P1;PMS_P2;Temp;Humidity;BMP_temperature;BMP_pressure;BME280_temperature;BME280_humidity;BME280_pressure;Samples;Min_cycle;Max_cycle;Signal;HPM_P1;HPM_P2
2021/06/19 00:01:07;;;;;;;7.82;6.47;;;;;;;18.53;76.18;101202.47;4143961;28;20085;-86
2021/06/19 00:03:07;;;;;;;9.77;7.05;;;;;;;18.51;76.56;101202.75;4168785;28;20037;-85
2021/06/19 00:05:10;;;;;;;6.60;6.00;;;;;;;18.51;75.93;101199.97;4144372;28;20061;-85
2021/06/19 00:07:11;;;;;;;6.45;5.82;;;;;;;18.47;76.38;101196.06;4146096;28;20029;-85
2021/06/19 00:09:11;;;;;;;8.55;5.85;;;;;;;18.48;76.29;101206.06;4184319;28;20112;-88
2021/06/19 00:11:12;;;;;;;5.72;5.22;;;;;;;18.46;76.22;101199.09;4140878;28;20088;-85
2021/06/19 00:13:13;;;;;;;6.68;6.18;;;;;;;18.46;76.42;101191.63;4162442;28;20033;-85
2021/06/19 00:15:16;;;;;;;6.53;5.93;;;;;;;18.48;76.31;101199.69;4159824;28;20033;-87
2021/06/19 00:17:16;;;;;;;8.82;5.90;;;;;;;18.45;76.18;101200.22;4178596;28;20034;-87
2021/06/19 00:19:17;;;;;;;7.38;6.45;;;;;;;18.47;76.22;101196.06;4179658;28;20029;-86
2021/06/19 00:21:18;;;;;;;8.32;6.43;;;;;;;18.43;76.11;101200.50;4176847;28;20741;-89
2021/06/19 00:23:18;;;;;;;14.13;7.93;;;;;;;18.44;76.19;101198.53;4147203;28;20038;-84
2021/06/19 00:25:21;;;;;;;9.13;7.32;;;;;;;18.37;76.17;101190.47;4174328;28;20033;-84
2021/06/19 00:27:21;;;;;;;7.72;6.90;;;;;;;18.43;76.15;101194.09;4159337;28;20045;-89
2021/06/19 00:29:22;;;;;;;8.65;7.45;;;;;;;18.45;76.12;101203.81;4127552;28;20139;-87
2021/06/19 00:31:22;;;;;;;7.78;6.95;;;;;;;18.47;75.89;101204.38;4182465;28;20045;-87
2021/06/19 00:33:23;;;;;;;8.52;6.60;;;;;;;18.45;76.10;101208.53;4159395;28;21283;-87
2021/06/19 00:35:23;;;;;;;7.47;6.72;;;;;;;18.46;76.21;101201.88;4183337;28;20060;-87
2021/06/19 00:37:24;;;;;;;8.90;7.88;;;;;;;18.42;76.19;101196.03;4181290;28;20087;-86
2021/06/19 00:39:24;;;;;;;8.88;7.97;;;;;;;18.41;76.17;101194.38;4179632;28;20033;-85
2021/06/19 00:41:26;;;;;;;9.85;8.57;;;;;;;18.38;76.41;101194.06;4172388;28;20488;-85
2021/06/19 00:43:27;;;;;;;11.60;7.68;;;;;;;18.38;76.29;101197.66;4176037;28;20037;-86
2021/06/19 00:45:31;;;;;;;9.18;7.50;;;;;;;18.43;76.43;101202.41;4175729;28;20028;-85
2021/06/19 00:47:32;;;;;;;8.07;7.25;;;;;;;18.39;76.29;101198.53;4176404;28;20024;-85
2021/06/19 00:49:32;;;;;;;9.02;8.13;;;;;;;18.37;76.28;101195.16;4159879;28;20635;-85
2021/06/19 00:51:33;;;;;;;12.68;8.93;;;;;;;18.38;76.20;101192.13;4159402;28;20049;-84
2021/06/19 00:53:34;;;;;;;8.98;7.88;;;;;;;18.42;76.21;101198.00;4157533;28;20042;-86
2021/06/19 00:55:34;;;;;;;8.57;7.78;;;;;;;18.42;76.02;101187.72;4159378;28;20038;-86
2021/06/19 00:57:36;;;;;;;10.68;8.15;;;;;;;18.43;75.84;101194.09;4143598;28;20032;-85
2021/06/19 00:59:37;;;;;;;9.55;8.20;;;;;;;18.42;76.31;101192.44;4158302;28;20574;-87
2021/06/19 01:01:38;;;;;;;11.45;8.57;;;;;;;18.35;76.49;101181.56;4175318;28;20040;-87
2021/06/19 01:03:39;;;;;;;9.18;8.02;;;;;;;18.33;76.45;101175.47;4161467;28;20059;-88
2021/06/19 01:05:39;;;;;;;10.73;8.93;;;;;;;18.29;76.29;101177.91;4130718;28;20033;-86
2021/06/19 01:07:40;;;;;;;13.90;10.07;;;;;;;18.28;76.34;101179.00;4169760;28;20605;-86
2021/06/19 01:09:40;;;;;;;14.45;10.98;;;;;;;18.29;76.35;101185.38;4138458;28;20053;-86
2021/06/19 01:11:41;;;;;;;13.32;11.98;;;;;;;18.26;76.36;101186.78;4160776;28;20050;-84
2021/06/19 01:13:41;;;;;;;13.48;11.75;;;;;;;18.21;76.75;101192.25;4179056;28;20040;-86
2021/06/19 01:15:42;;;;;;;13.27;11.85;;;;;;;18.26;76.61;101197.00;4158268;28;20039;-87
2021/06/19 01:17:43;;;;;;;18.70;13.15;;;;;;;18.19;77.10;101197.22;4162792;28;20033;-85
2021/06/19 01:19:43;;;;;;;16.60;14.25;;;;;;;18.20;76.88;101186.97;4166024;28;20115;-87
2021/06/19 01:21:44;;;;;;;20.23;14.68;;;;;;;18.30;76.45;101196.22;4144195;28;20038;-87
2021/06/19 01:23:45;;;;;;;17.50;15.70;;;;;;;18.30;76.48;101201.78;4158867;28;20033;-85
2021/06/19 01:25:46;;;;;;;19.88;16.50;;;;;;;18.25;76.46;101193.41;4163783;28;20441;-88
2021/06/19 01:27:48;;;;;;;20.63;17.20;;;;;;;18.27;76.42;101202.28;4175724;28;20041;-89
2021/06/19 01:29:49;;;;;;;22.17;19.48;;;;;;;18.18;76.54;101203.88;4133478;28;20041;-87
2021/06/19 01:31:49;;;;;;;29.25;20.83;;;;;;;18.18;76.71;101210.25;4142730;28;20783;-88
2021/06/19 01:33:50;;;;;;;29.65;23.83;;;;;;;18.15;76.58;101219.09;4160243;28;20033;-84
2021/06/19 01:35:51;;;;;;;35.83;26.70;;;;;;;18.07;76.37;101214.03;4163805;28;20065;-86
2021/06/19 01:37:55;;;;;;;39.85;28.10;;;;;;;18.04;76.43;101197.94;4141398;28;20060;-87
2021/06/19 01:40:23;;;;;;;42.22;29.27;;;;;;;17.98;76.23;101199.84;4181890;28;20027;-88
2021/06/19 01:42:24;;;;;;;36.65;27.83;;;;;;;17.89;76.32;101201.44;4159207;28;20049;-85
2021/06/19 01:44:24;;;;;;;43.95;28.92;;;;;;;17.86;76.38;101213.03;4178549;28;20056;-88
2021/06/19 01:46:25;;;;;;;39.22;29.17;;;;;;;17.70;76.15;101217.59;4142424;28;20061;-86
2021/06/19 01:48:26;;;;;;;39.75;28.80;;;;;;;17.50;75.84;101204.38;4177248;28;20029;-87
2021/06/19 01:50:26;;;;;;;44.65;29.50;;;;;;;17.56;76.00;101214.41;4138415;28;20525;-86
2021/06/19 01:52:26;;;;;;;46.40;32.90;;;;;;;17.38;75.63;101209.19;4166661;28;20037;-83
2021/06/19 01:54:27;;;;;;;45.25;31.63;;;;;;;17.25;76.16;101208.50;4159489;28;20590;-88
2021/06/19 01:56:27;;;;;;;46.03;31.45;;;;;;;17.27;76.12;101211.00;4178914;28;20040;-86
2021/06/19 01:58:30;;;;;;;48.97;33.60;;;;;;;17.24;76.21;101203.22;4156959;28;20037;-86
2021/06/19 02:00:34;;;;;;;52.53;38.28;;;;;;;17.18;76.21;101213.41;4146748;28;20061;-88
2021/06/19 02:02:36;;;;;;;47.63;36.17;;;;;;;17.08;76.10;101202.22;4164164;28;20068;-85
2021/06/19 02:04:37;;;;;;;48.20;37.22;;;;;;;17.09;76.14;101217.72;4159402;28;20169;-86
2021/06/19 02:06:37;;;;;;;37.35;28.08;;;;;;;16.95;76.31;101208.16;4158635;28;20041;-86
2021/06/19 02:08:39;;;;;;;27.77;22.85;;;;;;;16.90;76.04;101211.69;4126625;28;20421;-86
2021/06/19 02:10:42;;;;;;;39.80;27.13;;;;;;;16.90;75.91;101201.47;4159372;28;20020;-86
2021/06/19 02:12:43;;;;;;;38.35;30.85;;;;;;;16.93;75.87;101209.25;4159821;28;20041;-88
2021/06/19 02:14:44;;;;;;;40.95;32.30;;;;;;;16.88;76.04;101211.97;4175860;28;20565;-87
2021/06/19 02:16:44;;;;;;;45.45;32.33;;;;;;;16.82;75.96;101210.22;4161032;28;20060;-85
2021/06/19 02:18:45;;;;;;;43.33;31.55;;;;;;;16.85;76.01;101212.47;4146121;28;20042;-86
2021/06/19 02:20:51;;;;;;;32.80;26.52;;;;;;;16.76;76.68;101219.53;4160119;28;20041;-88
2021/06/19 02:22:52;;;;;;;29.15;24.23;;;;;;;16.73;76.20;101220.03;4164826;28;20017;-86
2021/06/19 02:24:53;;;;;;;28.10;23.20;;;;;;;16.69;76.15;101214.16;4156438;28;20581;-87
2021/06/19 02:27:14;;;;;;;29.30;25.13;;;;;;;16.63;76.13;101206.88;4161171;28;20040;-86
2021/06/19 02:29:14;;;;;;;31.02;22.63;;;;;;;16.55;76.37;101218.38;4141923;28;20641;-88
2021/06/19 02:31:16;;;;;;;25.95;22.13;;;;;;;16.53;76.14;101215.03;4180546;28;20052;-85
2021/06/19 02:33:18;;;;;;;29.15;22.88;;;;;;;16.44;75.73;101222.06;4178427;28;20025;-86
2021/06/19 02:35:19;;;;;;;29.80;23.83;;;;;;;16.39;76.27;101223.66;4162554;28;20040;-85
2021/06/19 02:37:19;;;;;;;26.88;20.58;;;;;;;16.42;76.32;101233.38;4176582;28;20450;-84
2021/06/19 02:39:20;;;;;;;23.60;18.58;;;;;;;16.40;76.18;101230.00;4176122;28;20060;-85
2021/06/19 02:41:20;;;;;;;21.83;17.73;;;;;;;16.28;76.26;101221.84;4159523;28;20053;-86
2021/06/19 02:43:21;;;;;;;23.98;19.85;;;;;;;16.30;76.13;101236.22;4167884;28;20037;-86
2021/06/19 02:45:22;;;;;;;25.80;20.33;;;;;;;16.28;76.32;101232.03;4177465;28;20043;-87
2021/06/19 02:47:22;;;;;;;25.55;21.15;;;;;;;16.30;75.96;101235.41;4156757;28;20523;-86
2021/06/19 02:49:23;;;;;;;23.27;19.85;;;;;;;16.16;76.20;101244.00;4152341;28;20034;-90
2021/06/19 02:51:23;;;;;;;19.52;16.20;;;;;;;16.10;76.44;101222.94;4159064;28;20065;-84
2021/06/19 02:53:24;;;;;;;17.42;15.13;;;;;;;16.13;75.80;101235.41;4165589;28;20037;-89
2021/06/19 02:55:29;;;;;;;23.00;17.50;;;;;;;16.10;76.09;101241.44;4158401;28;20025;-88
2021/06/19 02:57:30;;;;;;;16.88;14.88;;;;;;;15.98;76.05;101247.00;4160536;28;20033;-88
2021/06/19 02:59:30;;;;;;;19.58;15.27;;;;;;;15.96;76.09;101241.75;4169287;28;20669;-86
2021/06/19 03:01:30;;;;;;;18.58;15.20;;;;;;;15.96;75.82;101236.22;4159161;28;20034;-90
2021/06/19 03:03:31;;;;;;;18.80;16.15;;;;;;;16.01;75.94;101235.47;4144886;28;20109;-84
2021/06/19 03:05:33;;;;;;;18.35;16.35;;;;;;;15.94;75.86;101246.69;4162925;28;20123;-86
2021/06/19 03:07:34;;;;;;;17.50;15.23;;;;;;;15.98;75.56;101245.09;4163353;28;20033;-86
2021/06/19 03:09:35;;;;;;;20.08;16.67;;;;;;;15.88;75.71;101231.13;4178637;28;20147;-87
2021/06/19 03:11:35;;;;;;;20.90;18.65;;;;;;;15.89;75.62;101257.63;4143747;28;20026;-86
2021/06/19 03:13:35;;;;;;;21.30;18.92;;;;;;;15.95;75.80;101253.88;4151596;28;20511;-87
2021/06/19 03:15:36;;;;;;;22.77;20.27;;;;;;;15.89;75.65;101257.63;4166149;28;20507;-88
2021/06/19 03:17:37;;;;;;;22.88;20.48;;;;;;;15.93;75.72;101257.97;4147865;28;20170;-85
2021/06/19 03:19:38;;;;;;;21.02;18.92;;;;;;;15.81;75.96;101249.75;4156196;28;20065;-84
2021/06/19 03:21:42;;;;;;;22.15;19.85;;;;;;;15.83;75.73;101259.47;4183039;28;20039;-89
2021/06/19 03:23:42;;;;;;;21.67;19.27;;;;;;;15.86;75.49;101266.41;4144040;28;20029;-90
2021/06/19 03:25:43;;;;;;;25.88;20.40;;;;;;;15.79;75.95;101257.44;4154597;28;20035;-87
2021/06/19 03:27:45;;;;;;;25.00;22.20;;;;;;;15.82;75.71;101256.97;4159244;28;20523;-90
2021/06/19 03:29:45;;;;;;;30.60;24.42;;;;;;;15.82;75.56;101257.78;4147088;28;20691;-90
2021/06/19 03:31:46;;;;;;;28.05;22.13;;;;;;;15.80;75.53;101261.88;4155847;28;20049;-87
2021/06/19 03:33:46;;;;;;;24.02;20.08;;;;;;;15.77;75.53;101254.09;4178379;28;20033;-87
2021/06/19 03:35:47;;;;;;;25.90;22.50;;;;;;;15.78;75.49;101248.31;4147401;28;20030;-87
2021/06/19 03:37:50;;;;;;;24.13;21.23;;;;;;;15.82;75.46;101251.44;4147106;28;20034;-89
2021/06/19 03:39:51;;;;;;;29.95;21.70;;;;;;;15.83;75.31;101251.19;4162439;28;20124;-87
2021/06/19 03:41:51;;;;;;;27.60;23.27;;;;;;;15.88;75.19;101255.09;4141067;28;20030;-87
2021/06/19 03:43:52;;;;;;;28.90;22.73;;;;;;;15.81;75.36;101253.34;4178065;28;20029;-89
2021/06/19 03:45:52;;;;;;;26.75;23.02;;;;;;;15.90;75.30;101267.59;4147651;28;20033;-86
2021/06/19 03:47:54;;;;;;;27.10;23.08;;;;;;;15.82;75.10;101249.50;4163921;28;20120;-87
2021/06/19 03:49:54;;;;;;;32.95;25.92;;;;;;;15.89;75.36;101262.31;4160452;28;20029;-89
2021/06/19 03:51:54;;;;;;;30.15;22.70;;;;;;;15.81;75.40;101263.56;4179855;28;20091;-86
2021/06/19 03:53:55;;;;;;;25.63;21.08;;;;;;;15.77;75.24;101248.56;4179868;28;20057;-87
2021/06/19 03:55:58;;;;;;;25.38;20.88;;;;;;;15.82;75.21;101260.53;4159726;28;20037;-90
2021/06/19 03:58:00;;;;;;;24.52;20.80;;;;;;;15.80;74.94;101264.63;4152050;28;20037;-86
2021/06/19 04:00:00;;;;;;;22.55;19.08;;;;;;;15.65;75.13;101249.44;4162278;28;20037;-87
2021/06/19 04:02:03;;;;;;;20.98;18.38;;;;;;;15.65;75.09;101248.63;4144780;28;20036;-86
2021/06/19 04:04:03;;;;;;;21.95;19.48;;;;;;;15.75;75.02;101273.63;4147965;28;20491;-88
2021/06/19 04:06:04;;;;;;;24.13;20.48;;;;;;;15.71;75.30;101274.38;4145481;28;20029;-89
2021/06/19 04:08:04;;;;;;;22.45;19.35;;;;;;;15.76;74.92;101277.25;4143512;28;20038;-84
2021/06/19 04:10:07;;;;;;;23.38;18.58;;;;;;;15.66;75.39;101270.44;4141830;28;20089;-84
2021/06/19 04:12:08;;;;;;;22.33;18.33;;;;;;;15.81;75.16;101283.69;4161502;28;20587;-90
2021/06/19 04:14:09;;;;;;;20.05;16.85;;;;;;;15.75;75.33;101284.66;4141377;28;20046;-85
2021/06/19 04:16:10;;;;;;;25.95;19.92;;;;;;;15.77;75.35;101295.47;4157453;28;20033;-87
2021/06/19 04:18:10;;;;;;;21.20;18.02;;;;;;;15.71;75.42;101290.91;4163180;28;20040;-87
2021/06/19 04:20:12;;;;;;;15.30;13.40;;;;;;;15.64;75.26;101302.13;4147607;28;20045;-89
2021/06/19 04:22:14;;;;;;;22.58;15.60;;;;;;;15.59;75.34;101283.53;4145964;28;20137;-86
2021/06/19 04:24:14;;;;;;;20.08;15.60;;;;;;;15.67;75.43;101304.38;4181208;28;20044;-85
2021/06/19 04:26:14;;;;;;;20.75;15.85;;;;;;;15.56;75.33;101288.72;4162505;28;20029;-88
2021/06/19 04:28:15;;;;;;;20.75;15.30;;;;;;;15.63;75.17;101306.81;4163864;28;20025;-86
2021/06/19 04:30:16;;;;;;;21.67;17.83;;;;;;;15.64;74.99;101302.94;4135544;28;20037;-86
2021/06/19 04:32:18;;;;;;;20.67;16.20;;;;;;;15.59;74.99;101307.53;4146620;28;20101;-87
2021/06/19 04:34:18;;;;;;;19.55;15.63;;;;;;;15.54;74.76;101288.09;4146507;28;20073;-91
2021/06/19 04:36:19;;;;;;;17.70;15.82;;;;;;;15.58;74.85;101298.41;4140676;28;20030;-90
2021/06/19 04:38:19;;;;;;;19.05;16.00;;;;;;;15.59;75.21;101311.13;4143235;28;20045;-89
2021/06/19 04:40:29;;;;;;;23.27;16.60;;;;;;;15.58;75.00;101317.72;4127974;28;20109;-88
2021/06/19 04:42:36;;;;;;;17.77;15.98;;;;;;;15.57;75.03;101316.06;4156843;28;20056;-88
2021/06/19 04:45:10;;;;;;;17.77;14.90;;;;;;;15.60;74.70;101315.56;4150841;28;20038;-92
2021/06/19 04:47:03;;;;;;;21.23;16.67;;;;;;;15.62;74.99;101329.97;4159439;28;20064;-90
2021/06/19 04:49:04;;;;;;;18.67;15.35;;;;;;;15.49;74.76;101325.56;4146122;28;20040;-88
2021/06/19 04:51:04;;;;;;;18.10;15.57;;;;;;;15.59;75.16;101330.44;4154385;28;20064;-92
2021/06/19 04:53:06;;;;;;;19.80;17.05;;;;;;;15.66;74.63;101333.91;4149690;28;20476;-88
2021/06/19 04:55:10;;;;;;;21.80;16.85;;;;;;;15.76;75.20;101336.03;4142047;28;20412;-88
2021/06/19 04:57:10;;;;;;;18.92;15.15;;;;;;;15.81;75.10;101332.56;4161426;28;20038;-89
2021/06/19 04:59:11;;;;;;;19.02;16.95;;;;;;;16.02;74.75;101336.56;4177710;28;20032;-90
2021/06/19 05:01:11;;;;;;;22.15;16.80;;;;;;;16.17;73.96;101339.59;4145518;28;20042;-88
2021/06/19 05:03:13;;;;;;;19.90;15.30;;;;;;;16.14;74.06;101336.47;4131803;28;20046;-88
2021/06/19 05:05:14;;;;;;;24.02;15.30;;;;;;;16.11;73.63;101346.13;4144347;28;20543;-88
2021/06/19 05:07:15;;;;;;;23.60;17.75;;;;;;;16.11;73.53;101342.50;4160553;28;20033;-86
2021/06/19 05:09:15;;;;;;;19.98;15.38;;;;;;;16.04;73.76;101342.66;4126654;28;20030;-90
2021/06/19 05:11:16;;;;;;;18.38;14.88;;;;;;;15.98;73.54;101340.88;4144599;28;20027;-88
2021/06/19 05:13:16;;;;;;;19.42;12.98;;;;;;;16.02;73.59;101353.13;4160732;28;20033;-90
2021/06/19 05:15:20;;;;;;;18.30;13.95;;;;;;;15.93;73.79;101352.66;4126865;28;20030;-88
2021/06/19 05:17:21;;;;;;;17.52;13.10;;;;;;;16.02;73.66;101355.88;4143330;28;20434;-87
2021/06/19 05:19:21;;;;;;;15.38;12.98;;;;;;;16.00;73.64;101352.50;4175544;28;20029;-93
2021/06/19 05:21:22;;;;;;;12.80;11.35;;;;;;;15.96;73.64;101346.66;4131832;28;20038;-88
2021/06/19 05:23:22;;;;;;;13.18;11.05;;;;;;;15.86;73.61;101340.94;4150007;28;20609;-88
2021/06/19 05:25:23;;;;;;;12.07;10.68;;;;;;;15.90;73.95;101353.16;4158617;28;20045;-88
2021/06/19 05:27:24;;;;;;;18.05;10.25;;;;;;;15.96;73.55;101348.59;4173723;28;20030;-87
2021/06/19 05:29:24;;;;;;;12.07;9.38;;;;;;;15.95;73.60;101357.94;4153259;28;20571;-88
2021/06/19 05:31:29;;;;;;;10.85;9.68;;;;;;;15.93;73.55;101362.88;4146436;28;20049;-89
2021/06/19 05:33:30;;;;;;;10.50;9.20;;;;;;;15.99;73.69;101361.91;4162076;28;20492;-86
2021/06/19 05:35:31;;;;;;;14.68;9.27;;;;;;;16.01;73.46;101374.34;4176722;28;20120;-87
2021/06/19 05:37:31;;;;;;;10.65;9.55;;;;;;;15.98;73.41;101369.31;4160772;28;20061;-88
2021/06/19 05:39:32;;;;;;;8.98;8.07;;;;;;;15.93;73.13;101373.94;4127574;28;20042;-84
2021/06/19 05:41:33;;;;;;;13.60;8.35;;;;;;;15.95;73.22;101383.63;4160411;28;20549;-85
2021/06/19 05:43:33;;;;;;;9.82;8.75;;;;;;;16.00;73.22;101385.66;4147305;28;20194;-87
2021/06/19 05:45:34;;;;;;;10.73;8.57;;;;;;;16.05;73.15;101399.56;4160838;28;20112;-89
2021/06/19 05:47:34;;;;;;;10.32;8.10;;;;;;;15.89;73.33;101390.13;4144576;28;20033;-87
2021/06/19 05:49:35;;;;;;;10.43;7.75;;;;;;;15.89;73.40;101383.78;4171008;28;20029;-88
2021/06/19 05:51:35;;;;;;;7.47;6.05;;;;;;;15.87;73.31;101385.97;4159826;28;20117;-86
2021/06/19 05:53:36;;;;;;;10.60;8.40;;;;;;;15.84;73.13;101401.91;4126239;28;20058;-89
2021/06/19 05:55:36;;;;;;;9.95;8.15;;;;;;;15.94;72.97;101412.34;4156866;28;20029;-88
2021/06/19 05:57:37;;;;;;;12.13;9.30;;;;;;;15.84;73.28;101398.31;4127825;28;20573;-87
2021/06/19 05:59:37;;;;;;;11.18;8.35;;;;;;;15.98;73.08;101416.25;4169405;28;20538;-87
2021/06/19 06:01:38;;;;;;;13.07;9.00;;;;;;;16.02;73.27;101419.41;4141893;28;20078;-88
2021/06/19 06:03:38;;;;;;;11.00;8.45;;;;;;;16.09;73.13;101422.00;4176166;28;20041;-88
2021/06/19 06:05:39;;;;;;;10.95;8.52;;;;;;;16.02;73.09;101406.41;4153611;28;20034;-87
2021/06/19 06:07:39;;;;;;;10.57;8.90;;;;;;;15.96;72.91;101404.63;4156040;28;20107;-88
2021/06/19 06:09:40;;;;;;;8.50;7.55;;;;;;;16.04;72.91;101407.00;4158115;28;20029;-87
2021/06/19 06:11:40;;;;;;;8.20;7.43;;;;;;;16.04;72.94;101409.75;4156953;28;20125;-89
2021/06/19 06:13:41;;;;;;;8.35;7.55;;;;;;;16.07;72.90;101404.84;4128210;28;20070;-88
2021/06/19 06:15:41;;;;;;;10.90;9.82;;;;;;;16.02;72.61;101408.34;4137865;28;20103;-85
2021/06/19 06:17:42;;;;;;;9.55;8.57;;;;;;;15.98;72.77;101402.47;4156819;28;20159;-89
2021/06/19 06:19:42;;;;;;;9.98;8.80;;;;;;;16.11;72.70;101422.59;4149944;28;20029;-87
2021/06/19 06:21:42;;;;;;;8.35;7.55;;;;;;;16.15;72.62;101427.38;4126127;28;20041;-92
2021/06/19 06:23:43;;;;;;;9.25;7.75;;;;;;;16.07;72.71;101407.63;4137931;28;20056;-89
2021/06/19 06:25:44;;;;;;;12.98;9.13;;;;;;;16.12;72.92;101411.28;4157812;28;20033;-88
2021/06/19 06:27:44;;;;;;;11.35;8.02;;;;;;;16.22;72.42;101421.72;4177937;28;20459;-86
2021/06/19 06:29:44;;;;;;;10.82;7.85;;;;;;;16.11;72.28;101414.28;4157988;28;20034;-89
2021/06/19 06:31:45;;;;;;;9.27;8.18;;;;;;;16.16;72.33;101420.78;4158994;28;20053;-89
2021/06/19 06:33:47;;;;;;;7.30;6.60;;;;;;;16.09;72.21;101413.72;4128471;28;20037;-85
2021/06/19 06:35:47;;;;;;;8.55;6.72;;;;;;;15.98;72.08;101419.03;4156828;28;20458;-86
2021/06/19 06:37:48;;;;;;;6.70;6.10;;;;;;;16.05;72.06;101424.44;4169315;28;20039;-85
2021/06/19 06:39:48;;;;;;;6.53;6.00;;;;;;;15.97;72.63;101427.56;4142510;28;20036;-89
2021/06/19 06:41:49;;;;;;;6.97;6.47;;;;;;;16.09;72.23;101436.63;4162149;28;20450;-85
2021/06/19 06:43:49;;;;;;;8.90;6.50;;;;;;;16.00;72.53;101436.22;4153757;28;20034;-88
2021/06/19 06:45:50;;;;;;;9.27;8.32;;;;;;;16.02;72.29;101442.31;4140795;28;20057;-86
2021/06/19 06:47:50;;;;;;;10.95;8.57;;;;;;;15.92;72.38;101444.84;4168898;28;20415;-88
2021/06/19 06:49:53;;;;;;;12.30;10.55;;;;;;;16.09;72.22;101450.44;4159616;28;20029;-83
2021/06/19 06:51:53;;;;;;;19.73;13.95;;;;;;;16.12;72.11;101452.72;4158993;28;20092;-85
2021/06/19 06:53:54;;;;;;;22.35;17.65;;;;;;;16.02;72.41;101461.66;4151087;28;20041;-88
2021/06/19 06:55:54;;;;;;;26.95;23.25;;;;;;;16.00;72.38;101460.19;4157863;28;20026;-85
2021/06/19 06:57:55;;;;;;;28.88;22.63;;;;;;;15.99;72.11;101462.13;4141248;28;20044;-92
2021/06/19 06:59:55;;;;;;;31.50;23.52;;;;;;;15.87;72.16;101453.03;4125860;28;20713;-90
2021/06/19 07:01:57;;;;;;;33.72;23.60;;;;;;;15.87;72.02;101455.81;4161798;28;20036;-86
2021/06/19 07:03:58;;;;;;;38.00;25.65;;;;;;;15.82;72.31;101456.53;4146785;28;20026;-88
2021/06/19 07:05:59;;;;;;;31.52;24.17;;;;;;;15.83;72.04;101447.19;4142011;28;20038;-86
2021/06/19 07:07:59;;;;;;;27.27;21.38;;;;;;;15.75;72.16;101432.88;4162372;28;20052;-84
2021/06/19 07:10:00;;;;;;;21.33;16.13;;;;;;;15.89;72.11;101456.38;4143347;28;20489;-90
2021/06/19 07:12:00;;;;;;;14.32;12.68;;;;;;;15.91;71.81;101445.97;4131994;28;20069;-86
2021/06/19 07:14:01;;;;;;;15.40;9.38;;;;;;;15.77;71.66;101447.28;4115149;28;20101;-86
2021/06/19 07:16:01;;;;;;;9.98;8.98;;;;;;;15.82;71.24;101463.97;4138474;28;20033;-88
2021/06/19 07:18:02;;;;;;;10.90;7.82;;;;;;;15.87;70.92;101466.00;4175264;28;20486;-89
2021/06/19 07:20:06;;;;;;;10.63;6.40;;;;;;;15.87;70.73;101464.09;4142392;28;20038;-90
2021/06/19 07:22:08;;;;;;;9.98;6.40;;;;;;;15.86;70.66;101462.38;4175156;28;20084;-88
2021/06/19 07:24:08;;;;;;;7.72;5.93;;;;;;;15.90;69.98;101458.06;4144117;28;20570;-87
2021/06/19 07:26:08;;;;;;;8.65;5.50;;;;;;;16.12;70.32;101472.03;4142438;28;20078;-87
2021/06/19 07:28:09;;;;;;;9.43;6.25;;;;;;;16.10;69.90;101456.81;4126617;28;20041;-91
2021/06/19 07:30:10;;;;;;;7.22;5.32;;;;;;;16.34;69.51;101475.00;4142216;28;20082;-87
2021/06/19 07:32:11;;;;;;;8.35;4.85;;;;;;;16.28;68.70;101466.84;4152284;28;20412;-85
2021/06/19 07:34:11;;;;;;;10.80;5.53;;;;;;;16.24;67.86;101465.66;4156604;28;20045;-88
2021/06/19 07:36:12;;;;;;;11.45;6.43;;;;;;;16.37;68.06;101468.97;4126385;28;20481;-86
2021/06/19 07:38:12;;;;;;;11.32;4.90;;;;;;;16.45;68.10;101478.78;4175357;28;20676;-86
2021/06/19 07:40:14;;;;;;;11.35;6.07;;;;;;;16.44;67.71;101471.56;4158313;28;20564;-86
2021/06/19 07:42:14;;;;;;;10.07;5.82;;;;;;;16.52;67.10;101482.22;4140118;28;20041;-91
2021/06/19 07:44:15;;;;;;;10.50;5.20;;;;;;;16.62;66.95;101470.53;4155612;28;20057;-86
2021/06/19 07:46:16;;;;;;;9.05;4.40;;;;;;;16.80;67.03;101482.47;4155354;28;20025;-85
2021/06/19 07:48:16;;;;;;;13.10;4.55;;;;;;;16.80;65.99;101477.78;4142170;28;20092;-85
2021/06/19 07:50:17;;;;;;;5.20;4.28;;;;;;;17.15;66.87;101478.63;4159272;28;20037;-86
2021/06/19 07:52:18;;;;;;;9.77;5.90;;;;;;;17.35;65.69;101481.75;4157599;28;20112;-85
2021/06/19 07:54:19;;;;;;;10.10;5.95;;;;;;;17.64;64.71;101474.16;4159786;28;20082;-84
2021/06/19 07:56:19;;;;;;;7.15;5.50;;;;;;;17.76;63.01;101484.28;4162500;28;20029;-86
2021/06/19 07:58:20;;;;;;;7.50;4.18;;;;;;;17.81;62.89;101487.13;4144239;28;20038;-86
2021/06/19 08:00:20;;;;;;;6.22;3.47;;;;;;;17.58;62.57;101496.47;4158313;28;20612;-87
2021/06/19 08:02:21;;;;;;;5.20;3.35;;;;;;;17.29;62.79;101488.28;4128727;28;20592;-87
2021/06/19 08:04:21;;;;;;;5.20;2.83;;;;;;;16.90;62.96;101485.44;4190134;28;20043;-87
2021/06/19 08:06:21;;;;;;;5.40;3.15;;;;;;;16.81;63.68;101490.53;4143331;28;20041;-85
2021/06/19 08:08:22;;;;;;;2.72;2.50;;;;;;;16.73;63.91;101499.25;4162171;28;20041;-91
2021/06/19 08:10:25;;;;;;;3.78;1.88;;;;;;;16.61;63.62;101496.50;4127985;28;20073;-84
2021/06/19 08:12:25;;;;;;;3.83;2.58;;;;;;;16.65;64.41;101500.47;4158602;28;20036;-90
2021/06/19 08:14:26;;;;;;;5.07;3.10;;;;;;;16.58;64.29;101497.81;4148193;28;20503;-86
2021/06/19 08:16:27;;;;;;;3.40;2.92;;;;;;;16.52;64.69;101503.50;4156997;28;20029;-87
2021/06/19 08:18:28;;;;;;;4.43;3.22;;;;;;;16.55;65.05;101514.06;4163307;28;20072;-85
2021/06/19 08:20:29;;;;;;;3.67;3.38;;;;;;;16.43;64.66;101527.91;4133647;28;20026;-87
2021/06/19 08:22:29;;;;;;;3.42;3.00;;;;;;;16.30;63.88;101522.69;4161441;28;20107;-84
2021/06/19 08:24:30;;;;;;;3.88;2.60;;;;;;;16.16;64.29;101538.69;4148420;28;20527;-85
2021/06/19 08:26:30;;;;;;;4.90;2.38;;;;;;;16.16;64.20;101538.69;4179398;28;20036;-85
2021/06/19 08:28:33;;;;;;;3.17;2.35;;;;;;;16.13;64.60;101544.72;4146583;28;20411;-86
2021/06/19 08:30:34;;;;;;;3.25;2.55;;;;;;;16.11;65.07;101527.53;4143466;28;20586;-85
2021/06/19 08:32:34;;;;;;;2.80;2.58;;;;;;;16.25;64.93;101537.25;4175172;28;20041;-84
2021/06/19 08:34:35;;;;;;;3.40;2.88;;;;;;;16.25;64.98;101537.25;4174869;28;20029;-86
2021/06/19 08:36:36;;;;;;;4.45;2.45;;;;;;;16.29;65.31;101532.06;4155819;28;20128;-85
2021/06/19 08:38:38;;;;;;;3.63;3.33;;;;;;;16.30;65.41;101529.03;4143975;28;20030;-87
2021/06/19 08:40:39;;;;;;;4.53;3.33;;;;;;;16.34;65.48;101538.53;4154597;28;20041;-84
2021/06/19 08:42:40;;;;;;;5.95;3.70;;;;;;;16.20;65.24;101520.53;4159903;28;20488;-88
2021/06/19 08:44:45;;;;;;;10.70;4.78;;;;;;;16.08;64.90;101515.06;4181060;28;20097;-86
2021/06/19 08:46:46;;;;;;;15.13;5.68;;;;;;;16.01;65.03;101537.28;4167168;28;20076;-84
2021/06/19 08:48:52;;;;;;;12.35;6.05;;;;;;;16.04;65.43;101536.78;4144335;28;20073;-81
2021/06/19 08:50:53;;;;;;;14.70;7.95;;;;;;;16.01;65.85;101533.69;4156745;28;20036;-87
2021/06/19 08:52:53;;;;;;;13.63;5.55;;;;;;;15.96;65.58;101528.88;4139950;28;20030;-85
2021/06/19 08:54:54;;;;;;;9.80;4.72;;;;;;;15.96;65.26;101528.88;4156737;28;20036;-87
2021/06/19 08:56:57;;;;;;;10.80;4.78;;;;;;;15.88;65.77;101520.97;4157177;28;20446;-85
2021/06/19 08:58:57;;;;;;;12.93;5.95;;;;;;;15.81;65.90;101532.13;4157217;28;20042;-84
2021/06/19 09:00:58;;;;;;;12.07;5.60;;;;;;;15.94;65.83;101542.09;4171151;28;20095;-85
2021/06/19 09:02:58;;;;;;;11.60;6.53;;;;;;;15.87;66.22;101529.50;4157617;28;20034;-88
2021/06/19 09:05:06;;;;;;;13.85;6.53;;;;;;;15.99;65.94;101546.91;4126346;28;20102;-88
2021/06/19 09:07:06;;;;;;;11.75;5.57;;;;;;;15.98;66.45;101537.75;4169809;28;20036;-88
2021/06/19 09:09:17;;;;;;;13.73;6.55;;;;;;;15.97;65.60;101529.72;4143011;28;20481;-87
2021/06/19 09:11:38;;;;;;;13.05;6.45;;;;;;;16.04;65.71;101535.94;4148402;28;20038;-86
2021/06/19 09:13:38;;;;;;;9.45;5.38;;;;;;;16.26;65.47;101543.59;4173946;28;20040;-86
2021/06/19 09:15:44;;;;;;;11.90;5.30;;;;;;;16.40;65.34;101544.97;4146891;28;20037;-86